CheckWX is a tool to help pilots better visualize weather data.  It is not intended as a substitute for an official pre-flight weather briefing.

05:35:21 UTC

KJST METAR
John Murtha Johnstown-Cambria Co Airport
Johnstown, Pennsylvania, USA
Current

41 mins ago

KJST 280454Z AUTO 27017G28KT 7SM SCT055 M07/M13 A2979 RMK AO2 PK WND 27028/0454 UPB39E48SNE09 SLP123 P0000 T10671128 400001083
Observed
Feb-28 @ 04:54 UTC
Wind
  • 270° at 17 KTS
  • Gusting to 28 KTS
Visibility
7 SM
Flight Rules
VFR
Cloud Levels
  • Scattered at 5,500' AGL
Temperature
-7°C / 19°F
Dewpoint
-13°C / 9°F
Humidity
63%
Altimeter
29.79" Hg
Pressure
1008.82 hPa
Current Rain
0.01"
Previous

1 hour ago

KJST 280407Z AUTO 27018G25KT 4SM -SN FEW014 SCT021 OVC050 M07/M12 A2981 RMK AO2 PK WND 25026/0357 P0000 T10721117
Observed
Feb-28 @ 04:07 UTC
Wind
  • 270° at 18 KTS
  • Gusting to 25 KTS
Visibility
4 SM
Flight Rules
MVFR
Conditions
Light Snow
Cloud Levels
  • Few at 1,400' AGL
  • Scattered at 2,100' AGL
  • Overcast at 5,000' AGL
Temperature
-7°C / 19°F
Dewpoint
-12°C / 10°F
Humidity
68%
Altimeter
29.81" Hg
Pressure
1009.52 hPa
Current Rain
0.01"
Previous

2 hours ago

KJST 280401Z AUTO 28015G26KT 1 1/2SM -SN SCT014 BKN021 OVC050 M07/M11 A2981 RMK AO2 PK WND 25026/0357 P0000 T10721106
Observed
Feb-28 @ 04:01 UTC
Wind
  • 280° at 15 KTS
  • Gusting to 26 KTS
Visibility
1 1/2 SM
Flight Rules
IFR
Conditions
Light Snow
Cloud Levels
  • Scattered at 1,400' AGL
  • Broken at 2,100' AGL
  • Overcast at 5,000' AGL
Temperature
-7°C / 19°F
Dewpoint
-11°C / 12°F
Humidity
73%
Altimeter
29.81" Hg
Pressure
1009.52 hPa
Current Rain
0.01"